Rechercher aéroport 
image banner adimage banner adimage banner ad
image banner ad

1Q5 - Gravelly Valley

Situé à Upper Lake, United States

ICAO - 1Q5, IATA -

Données fournies par Airmate  

Information générale

Coordonnées: N39°27'3" W122°57'17"
Élévation : 1900 feet MSL.
Variation magnétique : 17° East
Voir autres Aéroports à California

Données opérationnelles

Special qualification required
Heure actuelle UTC:
Heure actuelle locale:
Météo à : KUKI - Ukiah Muni ( 42 km )
METAR: KUKI 260856Z AUTO 00000KT 10SM FEW015 13/09 A3000 RMK AO2 SLP150 T01330094 51007
TAF: KUKI 260540Z 2606/2706 VRB03KT P6SM SKC FM261100 17003KT 6SM BR OVC004 FM261700 VRB03KT P6SM SCT004 FM262200 32008KT P6SM SKC
Voir NOTAMs / SUP AIP / TFR affectant cet aéroport [VIEW]
Fréquences de communication: [VIEW]

Pistes:

Identifiant RWYQFULongueur (ft)Largeur (ft)SurfaceLDA (ft)
014050200GRAVEL
194050200GRAVEL

Coordonnées de l'aéroport

Adresse: Upper Lake United States

Vue satellite de 1Q5